createdAt,value
2018-08-16T00:00:16.977Z,6.73
2018-08-16T00:02:45.039Z,5.20
2018-08-16T00:05:12.368Z,8.60
2018-08-16T00:07:40.213Z,5.73
2018-08-16T00:10:10.337Z,6.00
2018-08-16T00:12:38.166Z,5.33
2018-08-16T00:15:05.851Z,5.33
2018-08-16T00:17:33.204Z,5.27
2018-08-16T00:20:00.541Z,5.30
2018-08-16T00:22:27.894Z,5.60
2018-08-16T00:24:55.168Z,5.90
2018-08-16T00:27:22.495Z,5.50
2018-08-16T00:29:49.835Z,6.27
2018-08-16T00:32:17.209Z,5.10
2018-08-16T00:34:44.520Z,5.73
2018-08-16T00:37:12.137Z,4.97
2018-08-16T00:39:39.433Z,5.23
2018-08-16T00:42:06.810Z,5.20
2018-08-16T00:44:34.202Z,5.13
2018-08-16T00:47:01.532Z,5.43
2018-08-16T00:49:28.948Z,5.97
2018-08-16T00:51:56.271Z,6.17
2018-08-16T00:54:23.611Z,5.83
2018-08-16T00:56:50.935Z,4.83
2018-08-16T00:59:18.652Z,4.90
2018-08-16T01:01:46.260Z,5.20
2018-08-16T01:04:13.555Z,5.80
2018-08-16T01:06:40.879Z,5.30
2018-08-16T01:09:08.816Z,5.30
2018-08-16T01:11:36.192Z,5.70
2018-08-16T01:14:04.003Z,5.30
2018-08-16T01:16:31.443Z,6.70
2018-08-16T01:18:58.739Z,5.20
2018-08-16T01:21:26.058Z,5.90
2018-08-16T01:23:53.442Z,5.07
2018-08-16T01:26:20.742Z,5.40
2018-08-16T01:28:48.056Z,5.10
2018-08-16T01:31:15.604Z,5.70
2018-08-16T01:33:42.939Z,5.57
2018-08-16T01:36:10.550Z,5.40
2018-08-16T01:38:37.848Z,5.97
2018-08-16T01:41:05.207Z,5.13
2018-08-16T01:43:32.530Z,5.47
2018-08-16T01:45:59.888Z,5.70
2018-08-16T01:48:27.224Z,5.23
2018-08-16T01:50:54.645Z,5.20
2018-08-16T01:53:21.989Z,5.53
2018-08-16T01:55:49.329Z,5.97
2018-08-16T01:58:16.657Z,5.07
2018-08-16T02:00:43.953Z,5.23
2018-08-16T02:03:12.264Z,5.47
2018-08-16T02:05:39.597Z,5.17
2018-08-16T02:08:06.916Z,5.40
2018-08-16T02:10:34.267Z,5.20
2018-08-16T02:13:01.740Z,5.10
2018-08-16T02:15:29.208Z,5.30
2018-08-16T02:17:56.561Z,4.97
2018-08-16T02:20:23.889Z,5.10
2018-08-16T02:22:51.221Z,5.33
2018-08-16T02:25:18.543Z,5.83
2018-08-16T02:27:45.885Z,5.20
2018-08-16T02:30:13.639Z,5.90
2018-08-16T02:32:40.902Z,5.13
2018-08-16T02:35:09.522Z,5.00
2018-08-16T02:37:36.916Z,5.67
2018-08-16T02:40:04.740Z,5.90
2018-08-16T02:42:32.015Z,5.83
2018-08-16T02:44:59.334Z,7.23
2018-08-16T02:47:26.618Z,5.43
2018-08-16T02:49:54.195Z,6.40
2018-08-16T02:52:21.546Z,6.70
2018-08-16T02:54:48.857Z,7.20
2018-08-16T02:57:16.141Z,6.57
2018-08-16T02:59:43.531Z,6.40
2018-08-16T03:02:10.885Z,6.53
2018-08-16T03:04:38.222Z,5.97
2018-08-16T03:07:05.677Z,6.77
2018-08-16T03:09:33.059Z,7.60
2018-08-16T03:12:00.450Z,7.63
2018-08-16T03:14:27.737Z,6.70
2018-08-16T03:16:55.236Z,5.63
2018-08-16T03:19:22.524Z,6.30
2018-08-16T03:21:49.915Z,6.60
2018-08-16T03:24:17.515Z,6.70
2018-08-16T03:26:44.861Z,6.10
2018-08-16T03:29:12.163Z,5.90
2018-08-16T03:31:39.526Z,6.80
2018-08-16T03:34:07.874Z,6.97
2018-08-16T03:36:35.162Z,6.40
2018-08-16T03:39:02.557Z,5.70
2018-08-16T03:41:30.258Z,7.57
2018-08-16T03:43:57.527Z,6.87
2018-08-16T03:46:24.944Z,6.23
2018-08-16T03:48:52.226Z,6.80
2018-08-16T03:51:19.554Z,6.73
2018-08-16T03:53:47.136Z,6.73
2018-08-16T03:56:14.496Z,6.23
2018-08-16T03:58:41.770Z,6.50
2018-08-16T04:01:09.393Z,5.40
2018-08-16T04:03:36.675Z,6.10
2018-08-16T04:06:04.141Z,6.30
2018-08-16T04:08:31.484Z,5.50
2018-08-16T04:10:58.883Z,6.30
2018-08-16T04:13:26.281Z,6.10
2018-08-16T04:15:53.559Z,6.03
2018-08-16T04:18:20.846Z,6.70
2018-08-16T04:20:48.141Z,6.60
2018-08-16T04:23:15.763Z,5.70
2018-08-16T04:25:43.081Z,6.53
2018-08-16T04:28:10.383Z,6.83
2018-08-16T04:30:37.712Z,6.73
2018-08-16T04:33:04.999Z,6.50
2018-08-16T04:35:34.099Z,6.20
2018-08-16T04:38:01.380Z,6.57
2018-08-16T04:40:28.715Z,6.80
2018-08-16T04:42:56.057Z,11.03
2018-08-16T04:45:23.357Z,7.70
2018-08-16T04:47:50.716Z,6.57
2018-08-16T04:50:18.017Z,6.00
2018-08-16T04:52:45.350Z,6.37
2018-08-16T04:55:13.092Z,7.60
2018-08-16T04:57:40.431Z,6.13
2018-08-16T05:00:09.365Z,6.33
2018-08-16T05:02:36.909Z,6.83
2018-08-16T05:05:05.044Z,6.30
2018-08-16T05:07:32.358Z,6.30
2018-08-16T05:09:59.762Z,6.83
2018-08-16T05:12:27.106Z,6.60
2018-08-16T05:14:54.417Z,5.80
2018-08-16T05:17:21.832Z,6.80
2018-08-16T05:19:49.125Z,6.30
2018-08-16T05:22:16.520Z,6.87
2018-08-16T05:24:43.923Z,6.80
2018-08-16T05:27:11.253Z,6.87
2018-08-16T05:29:38.605Z,6.43
2018-08-16T05:32:06.333Z,6.87
2018-08-16T05:34:35.114Z,5.93
2018-08-16T05:37:03.394Z,6.80
2018-08-16T05:39:31.224Z,12.23
2018-08-16T05:41:58.611Z,7.17
2018-08-16T05:44:25.992Z,6.13
2018-08-16T05:46:53.757Z,7.23
2018-08-16T05:49:21.116Z,5.20
2018-08-16T05:51:49.366Z,5.50
2018-08-16T05:54:18.195Z,5.77
2018-08-16T05:56:48.569Z,5.87
2018-08-16T05:59:19.236Z,6.53
2018-08-16T06:01:46.676Z,5.20
2018-08-16T06:04:14.040Z,6.10
2018-08-16T06:06:42.805Z,6.17
2018-08-16T06:09:11.195Z,6.20
2018-08-16T06:11:38.545Z,9.17
2018-08-16T06:14:06.790Z,6.13
2018-08-16T06:16:36.019Z,6.70
2018-08-16T06:19:03.757Z,5.90
2018-08-16T06:21:38.838Z,6.30
2018-08-16T06:24:17.905Z,7.50
2018-08-16T06:26:45.280Z,6.43
2018-08-16T06:29:13.421Z,7.00
2018-08-16T06:31:42.016Z,7.17
2018-08-16T06:34:09.439Z,7.07
2018-08-16T06:36:36.765Z,7.83
2018-08-16T06:39:06.694Z,7.13
2018-08-16T06:41:34.304Z,6.73
2018-08-16T06:44:01.698Z,7.40
2018-08-16T06:46:29.541Z,8.00
2018-08-16T06:48:56.853Z,7.43
2018-08-16T06:51:24.171Z,7.87
2018-08-16T06:53:52.197Z,6.03
2018-08-16T06:56:19.474Z,6.47
2018-08-16T06:58:47.221Z,5.93
2018-08-16T07:01:14.542Z,8.83
2018-08-16T07:03:41.916Z,5.80
2018-08-16T07:06:09.267Z,6.20
2018-08-16T07:08:36.633Z,7.50
2018-08-16T07:11:09.471Z,7.30
2018-08-16T07:13:37.007Z,5.70
2018-08-16T07:16:05.942Z,5.50
2018-08-16T07:18:36.313Z,8.20
2018-08-16T07:21:03.832Z,5.50
2018-08-16T07:23:35.590Z,5.40
2018-08-16T07:26:03.099Z,8.00
2018-08-16T07:28:30.473Z,5.03
2018-08-16T07:31:01.488Z,4.67
2018-08-16T07:33:29.803Z,5.03
2018-08-16T07:36:01.082Z,9.30
2018-08-16T07:38:30.600Z,6.70
2018-08-16T07:40:58.196Z,8.17
2018-08-16T07:43:25.517Z,5.33
2018-08-16T07:45:54.032Z,5.90
2018-08-16T07:48:21.287Z,5.83
2018-08-16T07:50:48.677Z,7.23
2018-08-16T07:53:16.035Z,5.10
2018-08-16T07:55:43.450Z,4.83
2018-08-16T07:58:11.397Z,5.77
2018-08-16T08:00:39.511Z,5.57
2018-08-16T08:03:06.904Z,5.53
2018-08-16T08:05:35.898Z,5.63
2018-08-16T08:08:03.311Z,4.97
2018-08-16T08:10:30.715Z,8.53
2018-08-16T08:12:59.081Z,5.70
2018-08-16T08:15:26.381Z,5.57
2018-08-16T08:17:53.766Z,5.53
2018-08-16T08:20:21.246Z,6.40
2018-08-16T08:22:48.596Z,8.40
2018-08-16T08:25:19.465Z,5.77
2018-08-16T08:27:48.654Z,5.70
2018-08-16T08:30:16.391Z,5.67
2018-08-16T08:32:43.746Z,5.80
2018-08-16T08:35:12.179Z,5.00
2018-08-16T08:37:45.014Z,4.53
2018-08-16T08:40:12.363Z,5.47
2018-08-16T08:42:39.714Z,5.40
2018-08-16T08:45:07.178Z,4.13
2018-08-16T08:47:39.874Z,4.50
2018-08-16T08:50:08.048Z,4.53
2018-08-16T08:52:36.318Z,6.13
2018-08-16T08:55:09.188Z,4.63
2018-08-16T08:57:43.956Z,4.87
2018-08-16T09:00:11.615Z,4.27
2018-08-16T09:02:39.103Z,4.67
2018-08-16T09:07:29.394Z,4.10
2018-08-16T09:12:03.868Z,4.50
2018-08-16T09:14:36.844Z,5.10
2018-08-16T09:17:04.246Z,3.60
2018-08-16T09:19:31.631Z,4.47
2018-08-16T09:21:59.822Z,3.90
2018-08-16T09:24:27.169Z,8.93
2018-08-16T09:26:54.525Z,4.13
2018-08-16T09:29:28.434Z,3.13
2018-08-16T09:32:04.296Z,4.27
2018-08-16T09:34:31.670Z,4.73
2018-08-16T09:36:59.976Z,3.00
2018-08-16T09:39:28.236Z,4.20
2018-08-16T09:41:55.565Z,4.20
2018-08-16T09:44:22.893Z,3.60
2018-08-16T09:47:12.309Z,5.10
2018-08-16T09:49:47.318Z,3.90
2018-08-16T09:52:15.528Z,4.00
2018-08-16T09:54:42.904Z,5.27
2018-08-16T09:57:12.581Z,3.90
2018-08-16T09:59:39.986Z,4.00
2018-08-16T10:02:10.279Z,3.97
2018-08-16T10:04:37.611Z,9.00
2018-08-16T10:07:06.017Z,5.60
2018-08-16T10:09:33.378Z,7.40
2018-08-16T10:12:02.587Z,6.63
2018-08-16T10:14:29.995Z,4.40
2018-08-16T10:16:58.105Z,5.67
2018-08-16T10:19:26.338Z,5.17
2018-08-16T10:21:53.789Z,4.17
2018-08-16T10:24:21.272Z,7.83
2018-08-16T10:26:48.646Z,5.23
2018-08-16T10:29:17.238Z,6.30
2018-08-16T10:31:44.657Z,4.67
2018-08-16T10:34:12.132Z,5.87
2018-08-16T10:36:40.740Z,4.80
2018-08-16T10:39:09.666Z,3.20
2018-08-16T10:41:37.014Z,3.40
2018-08-16T10:44:04.412Z,3.30
2018-08-16T10:46:31.981Z,6.30
2018-08-16T10:48:59.424Z,4.17
2018-08-16T10:51:27.348Z,4.20
2018-08-16T10:53:54.656Z,3.80
2018-08-16T10:56:22.638Z,4.03
2018-08-16T10:58:50.072Z,4.23
2018-08-16T11:01:17.520Z,3.90
2018-08-16T11:03:44.812Z,3.77
2018-08-16T11:06:12.238Z,6.23
2018-08-16T11:08:39.676Z,3.70
2018-08-16T11:11:07.113Z,3.00
2018-08-16T11:13:34.422Z,2.93
2018-08-16T11:16:01.723Z,2.87
2018-08-16T11:18:29.019Z,3.17
2018-08-16T11:20:56.875Z,2.90
2018-08-16T11:23:24.245Z,3.27
2018-08-16T11:25:51.880Z,2.97
2018-08-16T11:28:19.273Z,2.63
2018-08-16T11:30:46.574Z,4.37
2018-08-16T11:33:15.264Z,3.20
2018-08-16T11:35:43.564Z,4.70
2018-08-16T11:38:10.925Z,4.30
2018-08-16T11:40:38.286Z,3.77
2018-08-16T11:43:05.761Z,3.33
2018-08-16T11:45:33.125Z,3.43
2018-08-16T11:48:00.512Z,3.23
2018-08-16T11:50:27.879Z,2.70
2018-08-16T11:52:55.251Z,3.57
2018-08-16T11:55:22.756Z,4.27
2018-08-16T11:57:50.151Z,3.83
2018-08-16T12:00:17.692Z,3.67
2018-08-16T12:02:45.209Z,3.40
2018-08-16T12:05:12.510Z,3.53
2018-08-16T12:07:40.662Z,3.53
2018-08-16T12:10:08.632Z,6.60
2018-08-16T12:12:38.380Z,3.07
2018-08-16T12:15:09.694Z,3.83
2018-08-16T12:17:40.267Z,6.17
2018-08-16T12:20:08.868Z,3.93
2018-08-16T12:22:36.233Z,3.67
2018-08-16T12:25:04.145Z,4.23
2018-08-16T12:27:31.935Z,3.87
2018-08-16T12:29:59.491Z,3.40
2018-08-16T12:32:27.009Z,3.80
2018-08-16T12:34:54.765Z,3.40
2018-08-16T12:37:22.305Z,5.47
2018-08-16T12:39:49.691Z,3.50
2018-08-16T12:42:17.822Z,3.33
2018-08-16T12:44:45.315Z,3.80
2018-08-16T12:47:12.664Z,3.07
2018-08-16T12:55:07.780Z,3.57
2018-08-16T12:57:35.301Z,3.80
2018-08-16T13:00:02.909Z,4.63
2018-08-16T13:02:34.770Z,3.67
2018-08-16T13:05:02.351Z,4.83
2018-08-16T13:07:29.713Z,3.67
2018-08-16T13:09:57.497Z,3.47
2018-08-16T13:12:24.949Z,5.60
2018-08-16T13:14:52.492Z,4.30
2018-08-16T13:17:19.927Z,3.90
2018-08-16T13:19:47.396Z,4.07
2018-08-16T13:22:15.397Z,3.73
2018-08-16T13:24:42.857Z,4.43
2018-08-16T13:27:10.281Z,3.97
2018-08-16T13:29:37.819Z,4.40
2018-08-16T13:32:06.291Z,3.63
2018-08-16T13:34:33.683Z,4.10
2018-08-16T13:37:01.131Z,3.60
2018-08-16T13:39:28.544Z,3.90
2018-08-16T13:41:56.632Z,5.13
2018-08-16T13:44:23.886Z,4.37
2018-08-16T13:46:51.263Z,4.97
2018-08-16T13:49:18.620Z,2.90
2018-08-16T13:51:45.956Z,4.50
2018-08-16T13:54:13.320Z,3.27
2018-08-16T13:56:40.708Z,4.13
2018-08-16T13:59:08.059Z,4.03
2018-08-16T14:01:35.426Z,3.90
2018-08-16T14:04:04.676Z,4.30
2018-08-16T14:06:32.043Z,3.40
2018-08-16T14:08:59.333Z,3.83
2018-08-16T14:11:26.668Z,5.43
2018-08-16T14:13:54.810Z,4.20
2018-08-16T14:16:22.661Z,4.13
2018-08-16T14:18:50.020Z,4.23
2018-08-16T14:21:17.313Z,3.57
2018-08-16T14:23:46.543Z,3.90
2018-08-16T14:26:13.962Z,3.47
2018-08-16T14:28:41.687Z,4.20
2018-08-16T14:31:09.039Z,3.53
2018-08-16T14:33:36.773Z,4.03
2018-08-16T14:36:04.223Z,3.70
2018-08-16T14:38:31.575Z,4.33
2018-08-16T14:40:59.139Z,5.97
2018-08-16T14:43:26.550Z,4.00
2018-08-16T14:45:53.886Z,3.57
2018-08-16T14:48:21.227Z,4.67
2018-08-16T14:50:48.520Z,3.33
2018-08-16T14:53:16.929Z,3.50
2018-08-16T14:55:44.252Z,3.60
2018-08-16T14:58:11.710Z,5.40
2018-08-16T15:00:39.057Z,4.27
2018-08-16T15:03:06.471Z,3.80
2018-08-16T15:05:33.776Z,4.13
2018-08-16T15:08:01.178Z,3.30
2018-08-16T15:10:28.554Z,3.70
2018-08-16T15:12:55.877Z,3.80
2018-08-16T15:15:23.372Z,3.93
2018-08-16T15:17:51.218Z,10.60
2018-08-16T15:20:18.645Z,3.90
2018-08-16T15:22:47.054Z,4.07
2018-08-16T15:25:14.381Z,3.80
2018-08-16T15:27:41.785Z,3.73
2018-08-16T15:30:09.973Z,3.40
2018-08-16T15:32:37.362Z,4.20
2018-08-16T15:35:05.831Z,3.40
2018-08-16T15:37:33.508Z,3.33
2018-08-16T15:40:00.960Z,4.00
2018-08-16T15:42:28.436Z,3.63
2018-08-16T15:44:55.909Z,3.43
2018-08-16T15:47:23.446Z,3.93
2018-08-16T15:49:50.839Z,3.03
2018-08-16T15:52:18.585Z,3.87
2018-08-16T15:54:46.011Z,3.83
2018-08-16T15:57:13.354Z,3.80
2018-08-16T15:59:40.702Z,4.07
2018-08-16T16:02:08.153Z,4.33
2018-08-16T16:04:35.642Z,4.10
2018-08-16T16:07:03.106Z,4.00
2018-08-16T16:09:30.448Z,3.70
2018-08-16T16:11:57.830Z,3.70
2018-08-16T16:14:25.213Z,4.10
2018-08-16T16:16:52.551Z,8.67
2018-08-16T16:19:19.922Z,5.17
2018-08-16T16:21:47.337Z,4.30
2018-08-16T16:24:14.663Z,4.70
2018-08-16T16:26:42.039Z,4.37
2018-08-16T16:29:09.380Z,6.23
2018-08-16T16:31:36.701Z,4.87
2018-08-16T16:34:04.106Z,4.17
2018-08-16T16:36:31.496Z,4.30
2018-08-16T16:38:58.810Z,5.60
2018-08-16T16:41:26.165Z,4.53
2018-08-16T16:43:53.532Z,3.67
2018-08-16T16:46:20.895Z,5.60
2018-08-16T16:48:48.208Z,7.43
2018-08-16T16:51:15.525Z,3.93
2018-08-16T16:53:42.849Z,4.00
2018-08-16T16:56:10.326Z,3.60
2018-08-16T16:58:37.721Z,4.13
2018-08-16T17:01:05.057Z,3.57
2018-08-16T17:03:32.433Z,4.00
2018-08-16T17:05:59.732Z,4.10
2018-08-16T17:08:27.158Z,3.57
2018-08-16T17:10:54.501Z,4.00
2018-08-16T17:13:21.795Z,4.03
2018-08-16T17:15:49.127Z,4.30
2018-08-16T17:18:16.611Z,4.13
2018-08-16T17:20:43.923Z,4.13
2018-08-16T17:23:11.293Z,3.77
2018-08-16T17:25:38.615Z,5.53
2018-08-16T17:28:05.941Z,4.17
2018-08-16T17:30:33.410Z,3.93
2018-08-16T17:33:00.742Z,4.23
2018-08-16T17:35:28.030Z,3.57
2018-08-16T17:37:55.369Z,3.83
2018-08-16T17:40:22.679Z,3.53
2018-08-16T17:42:49.996Z,4.60
2018-08-16T17:45:17.822Z,3.77
2018-08-16T17:47:45.139Z,3.90
2018-08-16T17:50:13.335Z,3.83
2018-08-16T17:52:40.694Z,3.70
2018-08-16T17:55:08.033Z,3.63
2018-08-16T17:57:35.410Z,3.37
2018-08-16T18:00:03.257Z,6.50
2018-08-16T18:02:30.571Z,4.10
2018-08-16T18:04:58.358Z,3.97
2018-08-16T18:07:25.745Z,3.70
2018-08-16T18:09:53.072Z,3.60
2018-08-16T18:12:20.546Z,3.57
2018-08-16T18:14:48.040Z,5.07
2018-08-16T18:17:15.387Z,3.70
2018-08-16T18:19:42.695Z,3.50
2018-08-16T18:22:12.207Z,4.13
2018-08-16T18:24:39.619Z,3.43
2018-08-16T18:27:07.001Z,3.67
2018-08-16T18:29:34.372Z,4.00
2018-08-16T18:32:01.771Z,3.60
2018-08-16T18:34:29.177Z,3.80
2018-08-16T18:36:56.666Z,3.50
2018-08-16T18:39:23.993Z,3.57
2018-08-16T18:41:51.342Z,4.40
2018-08-16T18:44:18.713Z,3.90
2018-08-16T18:46:46.060Z,4.00
2018-08-16T18:49:13.388Z,3.97
2018-08-16T18:51:40.675Z,4.30
2018-08-16T18:54:08.081Z,5.20
2018-08-16T18:56:35.909Z,4.03
2018-08-16T18:59:03.368Z,5.13
2018-08-16T19:01:30.897Z,6.77
2018-08-16T19:03:58.194Z,4.13
2018-08-16T19:06:26.020Z,3.90
2018-08-16T19:08:53.328Z,5.10
2018-08-16T19:11:20.888Z,7.20
2018-08-16T19:13:48.220Z,4.30
2018-08-16T19:16:15.596Z,3.93
2018-08-16T19:18:43.032Z,3.87
2018-08-16T19:21:10.516Z,3.90
2018-08-16T19:23:37.945Z,4.20
2018-08-16T19:26:05.368Z,4.00
2018-08-16T19:28:32.724Z,4.90
2018-08-16T19:31:00.798Z,4.70
2018-08-16T19:33:28.178Z,4.20
2018-08-16T19:35:55.903Z,4.20
2018-08-16T19:38:23.167Z,4.60
2018-08-16T19:40:50.501Z,4.73
2018-08-16T19:43:17.870Z,4.90
2018-08-16T19:45:45.200Z,5.47
2018-08-16T19:48:12.618Z,4.93
2018-08-16T19:50:39.915Z,5.00
2018-08-16T19:53:07.313Z,4.97
2018-08-16T19:55:34.688Z,8.60
2018-08-16T19:58:02.508Z,5.50
2018-08-16T20:00:29.745Z,5.87
2018-08-16T20:02:57.224Z,6.03
2018-08-16T20:05:24.888Z,6.33
2018-08-16T20:07:52.396Z,5.93
2018-08-16T20:10:19.734Z,5.47
2018-08-16T20:12:47.180Z,5.67
2018-08-16T20:15:14.549Z,7.70
2018-08-16T20:17:41.885Z,5.60
2018-08-16T20:20:09.459Z,5.77
2018-08-16T20:22:36.757Z,6.77
2018-08-16T20:25:04.184Z,6.63
2018-08-16T20:27:31.543Z,5.20
2018-08-16T20:29:58.923Z,6.47
2018-08-16T20:32:26.558Z,8.13
2018-08-16T20:34:53.962Z,5.93
2018-08-16T20:37:21.534Z,6.00
2018-08-16T20:39:48.835Z,6.03
2018-08-16T20:42:16.206Z,6.17
2018-08-16T20:44:43.593Z,6.30
2018-08-16T20:47:10.958Z,6.03
2018-08-16T20:49:38.275Z,7.30
2018-08-16T20:52:05.598Z,5.20
2018-08-16T20:54:32.993Z,4.67
2018-08-16T20:57:00.298Z,7.37
2018-08-16T20:59:28.717Z,4.97
2018-08-16T21:01:56.136Z,6.03
2018-08-16T21:04:23.502Z,5.47
2018-08-16T21:06:50.780Z,6.43
2018-08-16T21:09:18.190Z,5.87
2018-08-16T21:11:45.529Z,5.57
2018-08-16T21:14:12.881Z,7.53
2018-08-16T21:16:40.162Z,7.73
2018-08-16T21:19:07.893Z,6.57
2018-08-16T21:21:35.245Z,6.83
2018-08-16T21:24:02.581Z,8.87
2018-08-16T21:26:30.206Z,6.10
2018-08-16T21:28:57.546Z,7.20
2018-08-16T21:31:24.849Z,7.10
2018-08-16T21:33:52.621Z,7.10
2018-08-16T21:36:19.972Z,6.70
2018-08-16T21:38:47.316Z,6.53
2018-08-16T21:41:14.623Z,8.20
2018-08-16T21:43:41.968Z,6.47
2018-08-16T21:46:09.360Z,9.13
2018-08-16T21:48:36.673Z,6.10
2018-08-16T21:51:04.041Z,6.70
2018-08-16T21:53:31.706Z,6.17
2018-08-16T21:55:59.025Z,6.63
2018-08-16T21:58:26.336Z,6.10
2018-08-16T22:00:55.597Z,6.20
2018-08-16T22:03:26.834Z,5.97
2018-08-16T22:06:10.710Z,5.70
2018-08-16T22:08:40.203Z,6.50
2018-08-16T22:11:07.886Z,7.90
2018-08-16T22:13:35.449Z,7.60
2018-08-16T22:16:02.791Z,7.90
2018-08-16T22:18:30.136Z,8.27
2018-08-16T22:20:57.568Z,8.87
2018-08-16T22:23:24.866Z,9.27
2018-08-16T22:25:52.301Z,8.17
2018-08-16T22:28:19.633Z,8.40
2018-08-16T22:30:47.420Z,8.47
2018-08-16T22:33:14.763Z,8.00
2018-08-16T22:35:42.165Z,7.50
2018-08-16T22:38:09.504Z,7.90
2018-08-16T22:40:36.898Z,7.37
2018-08-16T22:43:04.232Z,7.30
2018-08-16T22:45:31.522Z,7.70
2018-08-16T22:47:58.867Z,6.50
2018-08-16T22:50:26.900Z,7.43
2018-08-16T22:52:54.232Z,7.80
2018-08-16T22:55:21.953Z,7.33
2018-08-16T22:57:49.232Z,7.73
2018-08-16T23:00:16.962Z,8.10
2018-08-16T23:02:44.277Z,8.50
2018-08-16T23:05:11.688Z,7.80
2018-08-16T23:07:38.986Z,7.37
2018-08-16T23:10:06.543Z,7.07
2018-08-16T23:12:33.902Z,7.17
2018-08-16T23:15:01.254Z,8.70
2018-08-16T23:17:28.653Z,7.63
2018-08-16T23:19:56.124Z,7.77
2018-08-16T23:22:23.430Z,7.17
2018-08-16T23:24:50.814Z,9.53
2018-08-16T23:27:18.327Z,7.73
2018-08-16T23:29:45.722Z,7.20
2018-08-16T23:32:13.049Z,6.93
2018-08-16T23:34:40.465Z,10.03
2018-08-16T23:37:07.857Z,7.67
2018-08-16T23:39:35.206Z,6.97
2018-08-16T23:42:02.553Z,7.20
2018-08-16T23:44:29.962Z,6.33
2018-08-16T23:46:57.307Z,6.70
2018-08-16T23:49:24.619Z,6.67
2018-08-16T23:51:51.958Z,6.13
2018-08-16T23:54:19.328Z,6.10
2018-08-16T23:56:46.703Z,7.10
2018-08-16T23:59:14.113Z,6.30
